Latest Weather Observations for Roma

IDQ60801

Issued at 5:02 pm EST Monday 6 July 2015 (issued every 30 minutes, with the page automatically refreshed every 10 minutes)

About weather observations | Map of weather stations | Latest weather observations for QLD | Other Formats
Station Details ID: 043091 Name: ROMA AIRPORT Lat: -26.55 Lon: 148.77 Height: 307.38 m
Data from the previous 72 hours. | See also: Recent months at Roma
Date/Time
EST
Temp
°C
App
Temp
°C
Dew
Point
Rel
Hum
%
Delta-T
°C
Wind Press
QNH
hPa
Press
MSL
hPa
Rain
since 9 am
mm
Dir
 
Spd
km/h
Gust
km/h
Spd
kts
Gust
kts
06/05:00pm 22.2 19.9 5.6 34 8.4 W 7 9 4 5 1016.4 1016.4 0.0
06/04:30pm 22.9 19.4 5.3 32 8.9 W 13 17 7 9 1016.3 1016.3 0.0
06/04:00pm 23.6 20.4 5.0 30 9.4 WNW 11 17 6 9 1016.2 1016.2 0.0
06/03:30pm 23.7 19.2 4.1 28 9.8 WNW 17 24 9 13 1016.1 1016.1 0.0
06/03:00pm 23.9 19.7 3.8 27 10.0 WNW 15 24 8 13 1016.3 1016.3 0.0
06/02:30pm 23.7 19.9 4.1 28 9.8 W 13 22 7 12 1016.5 1016.5 0.0
06/02:00pm 23.7 19.6 4.1 28 9.8 W 15 22 8 12 1016.7 1016.7 0.0
06/01:30pm 23.7 18.6 4.1 28 9.8 W 20 26 11 14 1017.1 1017.1 0.0
06/01:00pm 23.4 19.3 4.4 29 9.5 WNW 15 24 8 13 1017.4 1017.4 0.0
06/12:30pm 23.2 19.5 4.2 29 9.5 W 13 22 7 12 1017.9 1017.9 0.0
06/12:00pm 22.5 19.4 5.4 33 8.7 WNW 11 20 6 11 1018.4 1018.4 0.0
06/11:30am 22.4 18.6 5.8 34 8.5 NW 15 26 8 14 1019.0 1019.0 0.0
06/11:00am 21.3 16.6 6.0 37 7.8 NW 20 26 11 14 1019.7 1019.8 0.0
06/10:30am 20.8 16.1 6.0 38 7.5 NNW 20 26 11 14 1020.0 1020.1 0.0
06/10:00am 19.6 15.5 6.3 42 6.7 NNW 17 22 9 12 1020.3 1020.4 0.0
06/09:00am 15.5 11.8 6.5 55 4.4 N 15 19 8 10 1020.2 1020.3 0.0
06/08:30am 12.5 9.2 6.3 66 3.0 N 13 19 7 10 1020.2 1020.3 0.0
06/08:00am 10.4 7.6 6.9 79 1.7 N 11 15 6 8 1020.1 1020.2 0.0
06/07:00am 4.4 0.4 3.1 91 0.5 NNE 13 15 7 8 1019.5 1019.5 0.0
06/06:30am 3.2 -0.2 1.9 91 0.5 NNE 9 11 5 6 1019.3 1019.3 0.0
06/06:00am 3.3 0.3 1.8 90 0.6 NNE 7 7 4 4 1019.3 1019.3 0.0
06/05:30am 3.2 0.1 1.6 89 0.6 NNE 7 9 4 5 1019.0 1019.0 0.0
06/05:00am 4.1 1.2 2.5 89 0.7 NNE 7 7 4 4 1019.1 1019.1 0.0
06/04:30am 4.2 0.9 2.7 90 0.6 N 9 11 5 6 1019.2 1019.2 0.0
06/04:00am 4.2 2.6 2.7 90 0.6 CALM 0 0 0 0 1019.3 1019.3 0.0
06/03:30am 3.4 0.9 1.6 88 0.7 NE 4 9 2 5 1019.3 1019.3 0.0
06/03:00am 4.2 1.9 2.6 89 0.7 N 4 7 2 4 1019.3 1019.3 0.0
06/02:30am 4.9 3.0 2.9 87 0.8 N 2 9 1 5 1019.4 1019.4 0.0
06/02:00am 4.3 2.5 1.5 82 1.1 CALM 0 0 0 0 1019.6 1019.7 0.0
06/01:30am 4.6 2.9 1.6 81 1.2 CALM 0 0 0 0 1019.8 1019.9 0.0
06/01:00am 5.8 4.4 3.5 85 1.0 CALM 0 0 0 0 1019.9 1020.0 0.0
06/12:30am 6.1 4.7 3.4 83 1.2 CALM 0 0 0 0 1020.1 1020.2 0.0
06/12:00am 6.0 3.2 3.2 82 1.2 SSW 7 9 4 5 1020.4 1020.5 0.0
 
Date/Time
EST
Temp
°C
App
Temp
°C
Dew
Point
Rel
Hum
%
Delta-T
°C
Wind Press
QNH
hPa
Press
MSL
hPa
Rain
since 9 am
mm
Dir
 
Spd
km/h
Gust
km/h
Spd
kts
Gust
kts
05/11:30pm 5.8 4.3 3.1 83 1.1 CALM 0 0 0 0 1020.4 1020.5 0.0
05/11:00pm 6.4 4.9 3.2 80 1.4 CALM 0 0 0 0 1020.7 1020.7 0.0
05/10:30pm 7.2 5.8 3.3 76 1.7 CALM 0 0 0 0 1020.7 1020.7 0.0
05/10:00pm 7.5 5.7 3.6 76 1.7 NW 2 6 1 3 1020.4 1020.5 0.0
05/09:30pm 8.4 5.3 3.8 73 2.0 N 9 9 5 5 1020.4 1020.5 0.0
05/09:00pm 8.2 4.1 4.2 76 1.8 NNE 15 17 8 9 1020.6 1020.6 0.0
05/08:30pm 8.7 6.2 3.7 71 2.2 NNE 6 9 3 5 1020.4 1020.5 0.0
05/08:00pm 10.1 8.1 2.2 58 3.4 N 2 6 1 3 1020.3 1020.4 0.0
05/07:30pm 10.8 8.3 4.0 63 3.1 N 6 6 3 3 1020.1 1020.2 0.0
05/07:20pm 9.9 7.7 0.8 53 3.8 E 2 6 1 3 1020.1 1020.2 0.0
05/07:00pm 15.0 12.3 2.9 44 5.5 SSE 6 6 3 3 1019.8 1019.9 0.0
05/06:30pm 15.6 14.2 3.4 44 5.7 CALM 0 4 0 2 1019.7 1019.8 0.0
05/06:00pm 16.0 14.5 2.8 41 6.1 CALM 0 0 0 0 1019.5 1019.5 0.0
05/05:30pm 18.6 16.9 2.0 33 7.7 CALM 0 0 0 0 1019.4 1019.4 0.0
05/05:00pm 21.4 19.9 3.1 30 8.8 CALM 0 0 0 0 1019.2 1019.2 0.0
05/04:30pm 22.1 19.9 3.3 29 9.1 NNE 4 7 2 4 1019.1 1019.1 0.0
05/04:00pm 22.3 19.5 3.4 29 9.2 WSW 7 15 4 8 1019.1 1019.1 0.0
05/03:30pm 23.0 20.8 3.5 28 9.6 W 4 9 2 5 1019.1 1019.1 0.0
05/03:00pm 22.5 19.4 3.6 29 9.3 WNW 9 13 5 7 1019.3 1019.3 0.0
05/02:30pm 22.6 19.5 3.7 29 9.3 WSW 9 20 5 11 1019.4 1019.4 0.0
05/02:00pm 22.9 19.8 3.4 28 9.5 NNE 9 13 5 7 1019.4 1019.4 0.0
05/01:30pm 22.1 18.0 4.6 32 8.7 NW 15 26 8 14 1019.8 1019.9 0.0
05/01:00pm 22.3 18.5 3.9 30 9.0 NW 13 22 7 12 1020.2 1020.3 0.0
05/12:30pm 21.6 17.8 3.8 31 8.7 WNW 13 28 7 15 1020.6 1020.6 0.0
05/12:00pm 22.1 17.7 4.6 32 8.7 NNW 17 30 9 16 1021.1 1021.1 0.0
05/11:30am 21.4 16.6 4.5 33 8.4 NNW 19 26 10 14 1021.5 1021.5 0.0
05/11:00am 20.8 15.9 5.2 36 7.8 N 20 28 11 15 1021.9 1021.9 0.0
05/10:30am 19.8 16.5 6.2 41 6.9 N 13 20 7 11 1022.4 1022.5 0.0
05/10:00am 18.2 15.0 6.7 47 5.8 NNE 13 20 7 11 1022.6 1022.7 0.0
05/09:30am 15.0 12.7 7.3 60 3.9 NNE 9 13 5 7 1022.6 1022.7 0.0
05/09:00am 11.0 8.8 6.0 71 2.4 NE 7 9 4 5 1022.7 1022.8 0.2
05/08:30am 9.0 6.9 5.9 81 1.4 NNE 6 7 3 4 1022.4 1022.5 0.2
05/08:00am 6.1 3.5 4.3 88 0.8 N 7 11 4 6 1022.3 1022.3 0.2
05/07:30am 4.1 0.9 3.1 93 0.4 N 9 11 5 6 1022.1 1022.1 0.2
05/07:00am 2.0 -1.5 1.0 93 0.4 N 9 11 5 6 1022.1 1022.1 0.2
05/06:30am 1.5 -2.2 0.2 91 0.5 N 9 11 5 6 1021.8 1021.8 0.2
05/06:00am 2.4 0.6 1.2 92 0.5 CALM 0 0 0 0 1021.5 1021.5 0.2
05/05:30am 2.4 0.2 1.2 92 0.5 W 2 6 1 3 1021.3 1021.3 0.2
05/05:00am 1.9 -1.3 0.6 91 0.5 SW 7 9 4 5 1021.0 1021.0 0.2
05/04:30am 2.3 0.5 1.0 91 0.5 CALM 0 2 0 1 1020.8 1020.8 0.2
05/04:00am 3.0 0.2 1.8 92 0.5 NNE 6 7 3 4 1020.4 1020.5 0.2
05/03:30am 2.5 -1.4 1.2 91 0.5 NNE 11 13 6 7 1020.6 1020.6 0.2
05/03:00am 2.9 -0.6 1.4 90 0.6 N 9 11 5 6 1020.8 1020.8 0.2
05/02:30am 2.6 -0.4 1.0 89 0.6 WNW 6 7 3 4 1021.2 1021.2 0.2
05/02:00am 2.9 0.2 0.6 85 0.9 W 4 9 2 5 1021.5 1021.5 0.2
05/01:30am 4.0 1.1 2.4 89 0.7 WNW 7 9 4 5 1021.5 1021.5 0.2
05/01:00am 4.2 0.9 2.7 90 0.6 N 9 13 5 7 1021.5 1021.5 0.2
05/12:30am 4.4 2.8 2.3 86 0.9 CALM 0 0 0 0 1021.5 1021.5 0.2
05/12:00am 4.9 3.4 3.1 88 0.8 CALM 0 0 0 0 1021.7 1021.7 0.2
 
Date/Time
EST
Temp
°C
App
Temp
°C
Dew
Point
Rel
Hum
%
Delta-T
°C
Wind Press
QNH
hPa
Press
MSL
hPa
Rain
since 9 am
mm
Dir
 
Spd
km/h
Gust
km/h
Spd
kts
Gust
kts
04/11:30pm 5.1 3.6 2.8 85 1.0 CALM 0 0 0 0 1021.9 1021.9 0.2
04/11:00pm 6.0 3.3 2.6 79 1.4 WSW 6 9 3 5 1022.1 1022.1 0.2
04/10:30pm 7.7 3.5 3.9 77 1.7 W 15 17 8 9 1022.0 1022.0 0.2
04/10:00pm 8.2 6.5 4.0 75 1.8 NW 2 17 1 9 1022.0 1022.0 0.2
04/09:30pm 9.1 6.7 4.3 72 2.2 N 6 7 3 4 1022.1 1022.1 0.2
04/09:00pm 9.5 6.9 4.1 69 2.4 E 7 9 4 5 1022.2 1022.2 0.2
04/08:30pm 11.0 9.7 4.2 63 3.1 CALM 0 6 0 3 1022.1 1022.1 0.2
04/08:00pm 10.3 8.0 4.7 68 2.6 SE 6 7 3 4 1022.0 1022.0 0.2
04/07:30pm 11.0 9.7 4.2 63 3.1 CALM 0 0 0 0 1021.7 1021.7 0.2
04/07:00pm 11.5 10.2 4.0 60 3.4 CALM 0 0 0 0 1021.3 1021.3 0.2
04/06:30pm 13.3 11.2 3.9 53 4.3 E 4 6 2 3 1021.0 1021.0 0.2
04/06:00pm 13.3 10.5 3.1 50 4.6 ESE 7 11 4 6 1020.6 1020.6 0.2
04/05:30pm 16.1 13.3 2.9 41 6.1 ESE 7 7 4 4 1020.2 1020.3 0.2
04/05:00pm 18.3 15.0 2.2 34 7.4 E 9 9 5 5 1020.0 1020.1 0.2
04/04:30pm 19.8 16.9 2.6 32 8.1 N 7 11 4 6 1019.9 1020.0 0.2
04/04:00pm 20.2 17.2 2.1 30 8.5 NNE 7 11 4 6 1019.8 1019.9 0.2
04/03:30pm 20.1 16.3 2.0 30 8.5 N 11 17 6 9 1019.9 1020.0 0.2
04/03:00pm 20.4 16.7 2.3 30 8.5 N 11 19 6 10 1019.9 1020.0 0.2
04/02:30pm 20.1 15.7 2.5 31 8.3 NNE 15 20 8 11 1020.0 1020.1 0.2
04/02:00pm 20.3 16.3 3.1 32 8.2 NNE 13 20 7 11 1020.1 1020.2 0.2
04/01:30pm 19.7 14.9 2.6 32 8.1 N 17 24 9 13 1020.4 1020.5 0.2
04/01:00pm 19.7 15.8 3.4 34 7.8 N 13 20 7 11 1021.0 1021.0 0.2
04/12:30pm 19.8 14.9 3.9 35 7.7 NNE 19 28 10 15 1021.6 1021.6 0.2
04/12:00pm 16.9 13.8 3.6 41 6.2 S 9 13 5 7 1022.3 1022.3 0.0
04/11:30am 16.5 14.0 3.6 42 6.1 N 6 15 3 8 1023.0 1023.1 0.0
04/11:00am 15.3 13.1 3.1 44 5.6 NE 4 9 2 5 1023.5 1023.6 0.0
04/10:30am 12.3 9.9 4.3 58 3.7 S 6 9 3 5 1024.0 1024.0 0.0
04/10:00am 11.4 9.0 4.4 62 3.2 ESE 6 9 3 5 1024.3 1024.3 0.0
04/09:30am 9.9 8.3 4.7 70 2.4 NNW 2 6 1 3 1024.4 1024.4 0.0
04/09:00am 6.9 5.1 3.3 78 1.5 NE 2 7 1 4 1024.6 1024.6 0.0
04/08:30am 4.9 3.3 2.6 85 1.0 CALM 0 0 0 0 1024.3 1024.3 0.0
04/08:00am 2.2 0.4 0.9 91 0.5 CALM 0 0 0 0 1024.4 1024.4 0.0
04/07:30am -0.3 -2.9 -1.4 92 0.4 NNE 2 6 1 3 1024.2 1024.2 0.0
04/07:00am -1.6 -4.7 -2.7 92 0.3 NNE 4 6 2 3 1024.0 1024.0 0.0
04/06:30am -1.3 -3.6 -2.4 92 0.3 CALM 0 0 0 0 1023.6 1023.7 0.0
04/06:00am -0.9 -3.1 -1.9 93 0.3 CALM 0 0 0 0 1023.2 1023.3 0.0
04/05:30am -0.4 -2.6 -1.5 92 0.4 CALM 0 6 0 3 1023.0 1023.1 0.0
04/05:00am -0.4 -2.6 -1.4 93 0.3 CALM 0 0 0 0 1022.9 1023.0 0.0
04/04:30am 0.4 -1.7 -0.6 93 0.4 CALM 0 0 0 0 1023.1 1023.2 0.0
04/04:00am -0.1 -3.4 -1.1 93 0.4 NNE 6 7 3 4 1023.2 1023.3 0.0
04/03:30am -0.3 -3.3 -1.6 91 0.4 NNE 4 9 2 5 1023.5 1023.6 0.0
04/03:00am 0.1 -2.1 -1.2 91 0.5 CALM 0 0 0 0 1023.7 1023.8 0.0
04/02:30am 0.6 -1.5 -0.5 92 0.4 CALM 0 0 0 0 1024.1 1024.1 0.0
04/02:00am 0.7 -1.3 -0.4 92 0.4 CALM 0 0 0 0 1024.1 1024.1 0.0
04/01:30am 1.2 -0.8 0.0 92 0.4 CALM 0 0 0 0 1024.1 1024.1 0.0
04/01:00am 0.3 -1.8 -1.1 90 0.5 CALM 0 0 0 0 1024.0 1024.0 0.0
04/12:30am 1.6 -1.7 0.3 91 0.5 N 7 9 4 5 1024.0 1024.0 0.0
04/12:00am 1.2 -1.6 -0.6 88 0.7 NNE 4 6 2 3 1023.8 1023.9 0.0
 
Date/Time
EST
Temp
°C
App
Temp
°C
Dew
Point
Rel
Hum
%
Delta-T
°C
Wind Press
QNH
hPa
Press
MSL
hPa
Rain
since 9 am
mm
Dir
 
Spd
km/h
Gust
km/h
Spd
kts
Gust
kts
03/11:30pm 1.8 -1.3 0.3 90 0.6 N 6 7 3 4 1024.1 1024.1 0.0
03/11:00pm 2.1 0.2 0.5 89 0.6 CALM 0 0 0 0 1024.3 1024.3 0.0
03/10:30pm 1.8 -0.4 -1.4 79 1.2 CALM 0 0 0 0 1024.5 1024.5 0.0
03/10:00pm 3.0 1.1 0.6 84 0.9 CALM 0 0 0 0 1024.5 1024.5 0.0
03/09:30pm 3.4 1.5 0.6 82 1.1 CALM 0 0 0 0 1024.6 1024.6 0.0
03/09:00pm 5.1 3.3 1.2 76 1.6 CALM 0 0 0 0 1024.7 1024.7 0.0
03/08:30pm 6.8 5.1 2.1 72 2.0 CALM 0 0 0 0 1024.5 1024.5 0.0
03/08:00pm 6.6 4.8 1.3 69 2.1 CALM 0 0 0 0 1024.2 1024.2 0.0
03/07:30pm 6.2 3.1 1.1 70 2.1 SW 7 9 4 5 1024.0 1024.0 0.0
03/07:00pm 7.0 3.4 0.5 63 2.6 SSW 9 15 5 8 1023.7 1023.8 0.0
03/06:30pm 8.2 4.3 1.1 61 2.9 SSW 11 13 6 7 1023.3 1023.4 0.0
03/06:00pm 8.6 4.6 0.6 57 3.3 SSW 11 13 6 7 1023.0 1023.1 0.0
03/05:30pm 10.9 7.3 0.6 49 4.3 SSW 9 11 5 6 1022.8 1022.9 0.0

Other Formats:

Comma delimited format used in spreadsheet applications
http://www.bom.gov.au/fwo/IDQ60801/IDQ60801.94515.axf

JavaScript Object Notation format (JSON) in row-major order
http://www.bom.gov.au/fwo/IDQ60801/IDQ60801.94515.json